sensor_id;sensor_type;location;lat;lon;timestamp;pressure;altitude;pressure_sealevel;temperature;humidity
40864;BME280;26582;47.524;19.012;2024-03-08T00:00:05;99212.13;;;7.39;81.95
40864;BME280;26582;47.524;19.012;2024-03-08T00:02:37;99215.38;;;7.53;82.29
40864;BME280;26582;47.524;19.012;2024-03-08T00:05:04;99215.88;;;7.58;81.79
40864;BME280;26582;47.524;19.012;2024-03-08T00:07:31;99217.19;;;7.64;81.95
40864;BME280;26582;47.524;19.012;2024-03-08T00:09:58;99221.66;;;7.75;81.37
40864;BME280;26582;47.524;19.012;2024-03-08T00:12:26;99212.97;;;7.73;81.00
40864;BME280;26582;47.524;19.012;2024-03-08T00:14:52;99211.03;;;7.75;80.71
40864;BME280;26582;47.524;19.012;2024-03-08T00:17:20;99206.94;;;7.71;80.73
40864;BME280;26582;47.524;19.012;2024-03-08T00:19:48;99211.28;;;7.72;80.59
40864;BME280;26582;47.524;19.012;2024-03-08T00:22:15;99205.50;;;7.78;80.31
40864;BME280;26582;47.524;19.012;2024-03-08T00:24:41;99218.03;;;7.76;80.80
40864;BME280;26582;47.524;19.012;2024-03-08T00:27:08;99212.84;;;7.63;81.37
40864;BME280;26582;47.524;19.012;2024-03-08T00:29:36;99207.91;;;7.58;80.94
40864;BME280;26582;47.524;19.012;2024-03-08T00:32:04;99209.38;;;7.63;81.03
40864;BME280;26582;47.524;19.012;2024-03-08T00:34:31;99206.25;;;7.57;80.95
40864;BME280;26582;47.524;19.012;2024-03-08T00:36:58;99199.00;;;7.59;80.78
40864;BME280;26582;47.524;19.012;2024-03-08T00:39:24;99201.41;;;7.63;80.97
40864;BME280;26582;47.524;19.012;2024-03-08T00:41:51;99204.78;;;7.65;81.16
40864;BME280;26582;47.524;19.012;2024-03-08T00:44:18;99193.56;;;7.61;81.20
40864;BME280;26582;47.524;19.012;2024-03-08T00:46:46;99199.97;;;7.58;81.21
40864;BME280;26582;47.524;19.012;2024-03-08T00:49:12;99196.34;;;7.59;81.09
40864;BME280;26582;47.524;19.012;2024-03-08T00:51:39;99200.44;;;7.52;80.39
40864;BME280;26582;47.524;19.012;2024-03-08T00:54:06;99201.16;;;7.43;81.06
40864;BME280;26582;47.524;19.012;2024-03-08T00:56:32;99202.84;;;7.44;82.21
40864;BME280;26582;47.524;19.012;2024-03-08T00:59:00;99200.81;;;7.37;82.35
40864;BME280;26582;47.524;19.012;2024-03-08T01:01:27;99195.88;;;7.43;81.81
40864;BME280;26582;47.524;19.012;2024-03-08T01:03:56;99200.19;;;7.55;82.24
40864;BME280;26582;47.524;19.012;2024-03-08T01:06:23;99189.09;;;7.62;82.16
40864;BME280;26582;47.524;19.012;2024-03-08T01:08:50;99188.75;;;7.66;81.50
40864;BME280;26582;47.524;19.012;2024-03-08T01:11:18;99193.06;;;7.67;81.17
40864;BME280;26582;47.524;19.012;2024-03-08T01:13:44;99188.88;;;7.65;81.23
40864;BME280;26582;47.524;19.012;2024-03-08T01:16:12;99187.78;;;7.67;81.33
40864;BME280;26582;47.524;19.012;2024-03-08T01:18:39;99191.28;;;7.68;81.06
40864;BME280;26582;47.524;19.012;2024-03-08T01:21:07;99179.13;;;7.65;81.70
40864;BME280;26582;47.524;19.012;2024-03-08T01:23:34;99182.88;;;7.63;81.45
40864;BME280;26582;47.524;19.012;2024-03-08T01:26:01;99185.50;;;7.63;81.37
40864;BME280;26582;47.524;19.012;2024-03-08T01:28:28;99184.53;;;7.64;81.33
40864;BME280;26582;47.524;19.012;2024-03-08T01:30:54;99199.00;;;7.71;81.17
40864;BME280;26582;47.524;19.012;2024-03-08T01:33:22;99183.91;;;7.71;80.97
40864;BME280;26582;47.524;19.012;2024-03-08T01:35:49;99192.72;;;7.72;80.50
40864;BME280;26582;47.524;19.012;2024-03-08T01:38:17;99191.78;;;7.73;80.43
40864;BME280;26582;47.524;19.012;2024-03-08T01:40:44;99190.53;;;7.77;80.27
40864;BME280;26582;47.524;19.012;2024-03-08T01:43:20;99190.69;;;7.75;80.66
40864;BME280;26582;47.524;19.012;2024-03-08T01:45:47;99186.94;;;7.78;80.76
40864;BME280;26582;47.524;19.012;2024-03-08T01:48:14;99187.19;;;7.75;80.64
40864;BME280;26582;47.524;19.012;2024-03-08T01:50:41;99186.22;;;7.76;80.40
40864;BME280;26582;47.524;19.012;2024-03-08T01:53:08;99188.16;;;7.74;80.50
40864;BME280;26582;47.524;19.012;2024-03-08T01:55:39;99185.00;;;7.80;80.26
40864;BME280;26582;47.524;19.012;2024-03-08T01:58:06;99183.91;;;7.82;79.56
40864;BME280;26582;47.524;19.012;2024-03-08T02:00:34;99188.50;;;7.80;79.32
40864;BME280;26582;47.524;19.012;2024-03-08T02:03:02;99180.91;;;7.76;77.00
40864;BME280;26582;47.524;19.012;2024-03-08T02:05:29;99186.09;;;7.66;79.25
40864;BME280;26582;47.524;19.012;2024-03-08T02:07:56;99181.63;;;7.67;80.33
40864;BME280;26582;47.524;19.012;2024-03-08T02:10:23;99182.84;;;7.74;79.90
40864;BME280;26582;47.524;19.012;2024-03-08T02:13:10;99179.72;;;7.69;79.92
40864;BME280;26582;47.524;19.012;2024-03-08T02:15:50;99185.59;;;7.72;80.36
40864;BME280;26582;47.524;19.012;2024-03-08T02:18:18;99189.69;;;7.76;80.21
40864;BME280;26582;47.524;19.012;2024-03-08T02:20:46;99189.84;;;7.75;80.01
40864;BME280;26582;47.524;19.012;2024-03-08T02:23:14;99197.41;;;7.79;79.87
40864;BME280;26582;47.524;19.012;2024-03-08T02:25:41;99198.50;;;7.77;79.14
40864;BME280;26582;47.524;19.012;2024-03-08T02:28:09;99193.94;;;7.79;79.76
40864;BME280;26582;47.524;19.012;2024-03-08T02:30:36;99194.63;;;7.81;79.72
40864;BME280;26582;47.524;19.012;2024-03-08T02:33:04;99190.31;;;7.80;79.58
40864;BME280;26582;47.524;19.012;2024-03-08T02:35:30;99189.59;;;7.78;79.57
40864;BME280;26582;47.524;19.012;2024-03-08T02:37:58;99188.03;;;7.75;79.67
40864;BME280;26582;47.524;19.012;2024-03-08T02:40:25;99175.88;;;7.73;79.28
40864;BME280;26582;47.524;19.012;2024-03-08T02:42:52;99181.28;;;7.71;79.91
40864;BME280;26582;47.524;19.012;2024-03-08T02:45:19;99193.56;;;7.50;80.11
40864;BME280;26582;47.524;19.012;2024-03-08T02:47:46;99188.13;;;7.51;78.16
40864;BME280;26582;47.524;19.012;2024-03-08T02:50:15;99192.03;;;7.47;79.32
40864;BME280;26582;47.524;19.012;2024-03-08T02:52:44;99198.75;;;7.51;78.13
40864;BME280;26582;47.524;19.012;2024-03-08T02:55:13;99196.22;;;7.50;77.56
40864;BME280;26582;47.524;19.012;2024-03-08T02:57:41;99188.88;;;7.42;77.02
40864;BME280;26582;47.524;19.012;2024-03-08T03:00:09;99196.22;;;7.39;77.17
40864;BME280;26582;47.524;19.012;2024-03-08T03:02:36;99201.38;;;7.40;77.29
40864;BME280;26582;47.524;19.012;2024-03-08T03:05:04;99200.91;;;7.46;77.84
40864;BME280;26582;47.524;19.012;2024-03-08T03:07:31;99197.31;;;7.47;78.32
40864;BME280;26582;47.524;19.012;2024-03-08T03:09:58;99196.56;;;7.45;78.52
40864;BME280;26582;47.524;19.012;2024-03-08T03:12:27;99199.00;;;7.48;79.30
40864;BME280;26582;47.524;19.012;2024-03-08T03:14:53;99198.50;;;7.54;79.62
40864;BME280;26582;47.524;19.012;2024-03-08T03:17:21;99204.66;;;7.55;77.61
40864;BME280;26582;47.524;19.012;2024-03-08T03:19:48;99202.34;;;7.50;76.83
40864;BME280;26582;47.524;19.012;2024-03-08T03:22:15;99200.69;;;7.49;77.08
40864;BME280;26582;47.524;19.012;2024-03-08T03:24:42;99199.22;;;7.45;78.75
40864;BME280;26582;47.524;19.012;2024-03-08T03:27:08;99200.69;;;7.49;78.84
40864;BME280;26582;47.524;19.012;2024-03-08T03:29:38;99204.16;;;7.50;78.64
40864;BME280;26582;47.524;19.012;2024-03-08T03:32:05;99205.75;;;7.52;78.88
40864;BME280;26582;47.524;19.012;2024-03-08T03:34:33;99197.41;;;7.46;78.00
40864;BME280;26582;47.524;19.012;2024-03-08T03:37:01;99199.47;;;7.42;77.01
40864;BME280;26582;47.524;19.012;2024-03-08T03:39:28;99204.53;;;7.45;76.36
40864;BME280;26582;47.524;19.012;2024-03-08T03:41:57;99202.00;;;7.44;76.89
40864;BME280;26582;47.524;19.012;2024-03-08T03:44:24;99201.16;;;7.43;78.28
40864;BME280;26582;47.524;19.012;2024-03-08T03:46:52;99205.84;;;7.40;78.43
40864;BME280;26582;47.524;19.012;2024-03-08T03:49:18;99185.63;;;7.27;78.47
40864;BME280;26582;47.524;19.012;2024-03-08T03:51:45;99192.25;;;7.33;77.54
40864;BME280;26582;47.524;19.012;2024-03-08T03:54:12;99189.81;;;7.30;77.77
40864;BME280;26582;47.524;19.012;2024-03-08T03:56:39;99203.47;;;7.37;76.83
40864;BME280;26582;47.524;19.012;2024-03-08T03:59:06;99203.56;;;7.35;76.11
40864;BME280;26582;47.524;19.012;2024-03-08T04:01:32;99207.16;;;7.34;76.53
40864;BME280;26582;47.524;19.012;2024-03-08T04:04:01;99202.63;;;7.36;77.49
40864;BME280;26582;47.524;19.012;2024-03-08T04:06:27;99203.31;;;7.38;78.47
40864;BME280;26582;47.524;19.012;2024-03-08T04:08:54;99202.50;;;7.38;78.92
40864;BME280;26582;47.524;19.012;2024-03-08T04:11:21;99203.94;;;7.42;78.90
40864;BME280;26582;47.524;19.012;2024-03-08T04:13:48;99203.31;;;7.38;78.88
40864;BME280;26582;47.524;19.012;2024-03-08T04:16:15;99198.88;;;7.39;77.06
40864;BME280;26582;47.524;19.012;2024-03-08T04:18:42;99199.00;;;7.37;76.97
40864;BME280;26582;47.524;19.012;2024-03-08T04:21:10;99200.69;;;7.38;77.55
40864;BME280;26582;47.524;19.012;2024-03-08T04:23:37;99205.97;;;7.38;76.81
40864;BME280;26582;47.524;19.012;2024-03-08T04:26:03;99205.84;;;7.40;77.15
40864;BME280;26582;47.524;19.012;2024-03-08T04:28:31;99205.00;;;7.39;77.98
40864;BME280;26582;47.524;19.012;2024-03-08T04:30:58;99201.28;;;7.42;77.30
40864;BME280;26582;47.524;19.012;2024-03-08T04:33:26;99202.13;;;7.42;78.17
40864;BME280;26582;47.524;19.012;2024-03-08T04:35:53;99211.75;;;7.43;78.19
40864;BME280;26582;47.524;19.012;2024-03-08T04:38:21;99210.31;;;7.39;77.53
40864;BME280;26582;47.524;19.012;2024-03-08T04:40:49;99207.66;;;7.39;77.83
40864;BME280;26582;47.524;19.012;2024-03-08T04:43:16;99208.00;;;7.35;76.90
40864;BME280;26582;47.524;19.012;2024-03-08T04:45:43;99204.16;;;7.39;78.46
40864;BME280;26582;47.524;19.012;2024-03-08T04:48:10;99208.84;;;7.46;78.42
40864;BME280;26582;47.524;19.012;2024-03-08T04:50:38;99211.50;;;7.46;77.80
40864;BME280;26582;47.524;19.012;2024-03-08T04:53:05;99215.03;;;7.47;78.13
40864;BME280;26582;47.524;19.012;2024-03-08T04:55:34;99210.44;;;7.49;79.48
40864;BME280;26582;47.524;19.012;2024-03-08T04:58:03;99209.59;;;7.48;79.47
40864;BME280;26582;47.524;19.012;2024-03-08T05:00:31;99216.09;;;7.44;78.33
40864;BME280;26582;47.524;19.012;2024-03-08T05:02:58;99208.38;;;7.41;78.14
40864;BME280;26582;47.524;19.012;2024-03-08T05:05:24;99209.81;;;7.45;78.40
40864;BME280;26582;47.524;19.012;2024-03-08T05:07:51;99203.56;;;7.46;78.52
40864;BME280;26582;47.524;19.012;2024-03-08T05:10:18;99213.22;;;7.47;78.48
40864;BME280;26582;47.524;19.012;2024-03-08T05:12:47;99211.50;;;7.46;77.88
40864;BME280;26582;47.524;19.012;2024-03-08T05:15:13;99208.75;;;7.48;78.40
40864;BME280;26582;47.524;19.012;2024-03-08T05:17:40;99209.59;;;7.48;78.65
40864;BME280;26582;47.524;19.012;2024-03-08T05:20:08;99213.22;;;7.47;78.92
40864;BME280;26582;47.524;19.012;2024-03-08T05:22:37;99221.16;;;7.47;78.14
40864;BME280;26582;47.524;19.012;2024-03-08T05:25:06;99196.44;;;7.36;77.79
40864;BME280;26582;47.524;19.012;2024-03-08T05:27:33;99218.50;;;7.47;77.91
40864;BME280;26582;47.524;19.012;2024-03-08T05:30:02;99221.25;;;7.46;77.72
40864;BME280;26582;47.524;19.012;2024-03-08T05:32:29;99226.56;;;7.46;78.44
40864;BME280;26582;47.524;19.012;2024-03-08T05:34:56;99226.34;;;7.49;78.54
40864;BME280;26582;47.524;19.012;2024-03-08T05:37:23;99223.81;;;7.47;77.92
40864;BME280;26582;47.524;19.012;2024-03-08T05:39:50;99234.41;;;7.47;78.07
40864;BME280;26582;47.524;19.012;2024-03-08T05:42:16;99228.84;;;7.50;78.12
40864;BME280;26582;47.524;19.012;2024-03-08T05:44:43;99233.19;;;7.51;78.36
40864;BME280;26582;47.524;19.012;2024-03-08T05:47:11;99235.84;;;7.51;78.01
40864;BME280;26582;47.524;19.012;2024-03-08T05:49:37;99241.13;;;7.51;78.44
40864;BME280;26582;47.524;19.012;2024-03-08T05:52:04;99243.19;;;7.48;78.45
40864;BME280;26582;47.524;19.012;2024-03-08T05:54:31;99242.84;;;7.52;78.75
40864;BME280;26582;47.524;19.012;2024-03-08T05:56:58;99246.44;;;7.51;79.12
40864;BME280;26582;47.524;19.012;2024-03-08T05:59:25;99254.28;;;7.53;78.91
40864;BME280;26582;47.524;19.012;2024-03-08T06:01:52;99251.75;;;7.51;78.48
40864;BME280;26582;47.524;19.012;2024-03-08T06:04:20;99251.50;;;7.54;78.54
40864;BME280;26582;47.524;19.012;2024-03-08T06:06:46;99244.28;;;7.56;78.88
40864;BME280;26582;47.524;19.012;2024-03-08T06:09:13;99254.88;;;7.56;78.60
40864;BME280;26582;47.524;19.012;2024-03-08T06:11:42;99254.88;;;7.56;78.41
40864;BME280;26582;47.524;19.012;2024-03-08T06:14:08;99251.50;;;7.54;78.45
40864;BME280;26582;47.524;19.012;2024-03-08T06:16:35;99252.22;;;7.45;77.74
40864;BME280;26582;47.524;19.012;2024-03-08T06:19:03;99253.41;;;7.41;77.10
40864;BME280;26582;47.524;19.012;2024-03-08T06:21:32;99257.88;;;7.41;77.55
40864;BME280;26582;47.524;19.012;2024-03-08T06:23:59;99255.00;;;7.44;78.33
40864;BME280;26582;47.524;19.012;2024-03-08T06:26:25;99259.44;;;7.43;77.33
40864;BME280;26582;47.524;19.012;2024-03-08T06:28:54;99264.38;;;7.37;77.32
40864;BME280;26582;47.524;19.012;2024-03-08T06:31:20;99254.13;;;7.32;76.98
40864;BME280;26582;47.524;19.012;2024-03-08T06:33:47;99259.94;;;7.37;77.12
40864;BME280;26582;47.524;19.012;2024-03-08T06:36:16;99263.28;;;7.28;76.88
40864;BME280;26582;47.524;19.012;2024-03-08T06:38:46;99267.47;;;7.30;77.42
40864;BME280;26582;47.524;19.012;2024-03-08T06:41:13;99272.28;;;7.25;77.26
40864;BME280;26582;47.524;19.012;2024-03-08T06:43:41;99274.22;;;7.23;77.42
40864;BME280;26582;47.524;19.012;2024-03-08T06:46:08;99266.41;;;7.22;77.64
40864;BME280;26582;47.524;19.012;2024-03-08T06:48:35;99268.69;;;7.26;77.92
40864;BME280;26582;47.524;19.012;2024-03-08T06:51:03;99277.72;;;7.24;78.20
40864;BME280;26582;47.524;19.012;2024-03-08T06:53:30;99278.91;;;7.20;78.49
40864;BME280;26582;47.524;19.012;2024-03-08T06:55:58;99271.22;;;7.28;77.97
40864;BME280;26582;47.524;19.012;2024-03-08T06:58:25;99271.00;;;7.31;78.30
40864;BME280;26582;47.524;19.012;2024-03-08T07:00:51;99276.03;;;7.34;78.03
40864;BME280;26582;47.524;19.012;2024-03-08T07:03:18;99274.16;;;7.36;77.16
40864;BME280;26582;47.524;19.012;2024-03-08T07:05:47;99266.56;;;7.43;77.74
40864;BME280;26582;47.524;19.012;2024-03-08T07:08:14;99275.34;;;7.43;77.27
40864;BME280;26582;47.524;19.012;2024-03-08T07:10:41;99268.09;;;7.34;77.08
40864;BME280;26582;47.524;19.012;2024-03-08T07:13:11;99276.41;;;7.41;78.04
40864;BME280;26582;47.524;19.012;2024-03-08T07:15:38;99267.41;;;7.43;78.51
40864;BME280;26582;47.524;19.012;2024-03-08T07:18:05;99276.91;;;7.46;77.93
40864;BME280;26582;47.524;19.012;2024-03-08T07:20:34;99271.38;;;7.49;77.50
40864;BME280;26582;47.524;19.012;2024-03-08T07:23:02;99275.50;;;7.53;77.54
40864;BME280;26582;47.524;19.012;2024-03-08T07:25:29;99279.69;;;7.55;78.38
40864;BME280;26582;47.524;19.012;2024-03-08T07:27:56;99278.13;;;7.53;78.64
40864;BME280;26582;47.524;19.012;2024-03-08T07:30:25;99275.72;;;7.61;79.57
40864;BME280;26582;47.524;19.012;2024-03-08T07:33:10;99279.97;;;7.64;79.14
40864;BME280;26582;47.524;19.012;2024-03-08T07:35:38;99293.69;;;7.57;78.45
40864;BME280;26582;47.524;19.012;2024-03-08T07:38:05;99288.38;;;7.57;77.11
40864;BME280;26582;47.524;19.012;2024-03-08T07:40:35;99282.34;;;7.55;76.83
40864;BME280;26582;47.524;19.012;2024-03-08T07:43:03;99292.44;;;7.50;77.31
40864;BME280;26582;47.524;19.012;2024-03-08T07:45:32;99281.63;;;7.53;77.54
40864;BME280;26582;47.524;19.012;2024-03-08T07:47:58;99286.44;;;7.59;78.31
40864;BME280;26582;47.524;19.012;2024-03-08T07:50:25;99290.78;;;7.49;79.86
40864;BME280;26582;47.524;19.012;2024-03-08T07:52:52;99288.88;;;7.63;80.18
40864;BME280;26582;47.524;19.012;2024-03-08T07:55:18;99292.84;;;7.68;78.78
40864;BME280;26582;47.524;19.012;2024-03-08T07:57:45;99289.09;;;7.71;77.95
40864;BME280;26582;47.524;19.012;2024-03-08T08:00:13;99293.34;;;7.73;79.16
40864;BME280;26582;47.524;19.012;2024-03-08T08:02:44;99293.00;;;7.78;77.64
40864;BME280;26582;47.524;19.012;2024-03-08T08:05:11;99294.91;;;7.76;77.17
40864;BME280;26582;47.524;19.012;2024-03-08T08:07:39;99287.44;;;7.81;77.44
40864;BME280;26582;47.524;19.012;2024-03-08T08:10:09;99298.03;;;7.81;76.93
40864;BME280;26582;47.524;19.012;2024-03-08T08:12:42;99295.63;;;7.78;77.37
40864;BME280;26582;47.524;19.012;2024-03-08T08:15:09;99289.13;;;7.82;77.96
40864;BME280;26582;47.524;19.012;2024-03-08T08:17:35;99289.84;;;7.84;78.25
40864;BME280;26582;47.524;19.012;2024-03-08T08:20:05;99290.56;;;7.86;77.47
40864;BME280;26582;47.524;19.012;2024-03-08T08:22:32;99285.25;;;7.86;78.44
40864;BME280;26582;47.524;19.012;2024-03-08T08:24:58;99284.19;;;7.89;78.40
40864;BME280;26582;47.524;19.012;2024-03-08T08:27:25;99287.69;;;7.89;78.74
40864;BME280;26582;47.524;19.012;2024-03-08T08:29:52;99285.97;;;7.88;78.53
40864;BME280;26582;47.524;19.012;2024-03-08T08:32:19;99285.97;;;7.88;78.12
40864;BME280;26582;47.524;19.012;2024-03-08T08:34:46;99296.34;;;7.91;78.05
40864;BME280;26582;47.524;19.012;2024-03-08T08:37:14;99292.16;;;7.89;78.45
40864;BME280;26582;47.524;19.012;2024-03-08T08:39:41;99296.34;;;7.91;78.17
40864;BME280;26582;47.524;19.012;2024-03-08T08:42:08;99289.97;;;7.94;78.45
40864;BME280;26582;47.524;19.012;2024-03-08T08:44:36;99292.50;;;7.95;79.22
40864;BME280;26582;47.524;19.012;2024-03-08T08:47:03;99284.19;;;8.00;79.55
40864;BME280;26582;47.524;19.012;2024-03-08T08:49:29;99290.69;;;7.96;80.06
40864;BME280;26582;47.524;19.012;2024-03-08T08:51:57;99291.88;;;7.92;79.25
40864;BME280;26582;47.524;19.012;2024-03-08T08:54:25;99291.06;;;7.91;78.45
40864;BME280;26582;47.524;19.012;2024-03-08T08:56:53;99287.44;;;7.92;78.96
40864;BME280;26582;47.524;19.012;2024-03-08T08:59:19;99291.06;;;7.91;79.26
40864;BME280;26582;47.524;19.012;2024-03-08T09:01:48;99289.09;;;7.93;79.94
40864;BME280;26582;47.524;19.012;2024-03-08T09:04:15;99287.91;;;7.97;80.59
40864;BME280;26582;47.524;19.012;2024-03-08T09:06:42;99290.81;;;7.94;79.96
40864;BME280;26582;47.524;19.012;2024-03-08T09:09:10;99294.41;;;7.93;80.70
40864;BME280;26582;47.524;19.012;2024-03-08T09:11:40;99284.06;;;7.90;81.98
40864;BME280;26582;47.524;19.012;2024-03-08T09:14:07;99283.72;;;7.95;81.09
40864;BME280;26582;47.524;19.012;2024-03-08T09:16:34;99283.44;;;7.98;80.87
40864;BME280;26582;47.524;19.012;2024-03-08T09:19:02;99287.19;;;7.95;80.91
40864;BME280;26582;47.524;19.012;2024-03-08T09:21:29;99287.44;;;7.92;81.25
40864;BME280;26582;47.524;19.012;2024-03-08T09:23:56;99285.53;;;7.94;81.34
40864;BME280;26582;47.524;19.012;2024-03-08T09:26:24;99237.56;;;7.64;82.10
40864;BME280;26582;47.524;19.012;2024-03-08T09:28:52;99295.28;;;7.94;81.46
40864;BME280;26582;47.524;19.012;2024-03-08T09:31:19;99287.44;;;7.92;81.52
40864;BME280;26582;47.524;19.012;2024-03-08T09:33:46;99292.63;;;7.94;81.68
40864;BME280;26582;47.524;19.012;2024-03-08T09:36:13;99287.44;;;7.92;81.82
40864;BME280;26582;47.524;19.012;2024-03-08T09:38:40;99291.41;;;7.87;81.67
40864;BME280;26582;47.524;19.012;2024-03-08T09:41:07;99294.41;;;7.93;81.47
40864;BME280;26582;47.524;19.012;2024-03-08T09:43:35;99293.47;;;7.94;82.30
40864;BME280;26582;47.524;19.012;2024-03-08T09:46:06;99291.88;;;7.92;82.43
40864;BME280;26582;47.524;19.012;2024-03-08T09:48:34;99297.31;;;7.90;81.73
40864;BME280;26582;47.524;19.012;2024-03-08T09:51:01;99294.41;;;7.93;81.96
40864;BME280;26582;47.524;19.012;2024-03-08T09:53:28;99294.66;;;8.01;82.43
40864;BME280;26582;47.524;19.012;2024-03-08T09:55:55;99287.91;;;8.08;82.65
40864;BME280;26582;47.524;19.012;2024-03-08T09:58:22;99285.72;;;8.14;82.25
40864;BME280;26582;47.524;19.012;2024-03-08T10:01:18;99298.13;;;8.24;81.94
40864;BME280;26582;47.524;19.012;2024-03-08T10:03:46;99297.06;;;8.27;82.11
40864;BME280;26582;47.524;19.012;2024-03-08T10:06:13;99294.88;;;8.32;82.22
40864;BME280;26582;47.524;19.012;2024-03-08T10:08:40;99297.22;;;8.36;82.13
40864;BME280;26582;47.524;19.012;2024-03-08T10:11:07;99300.44;;;8.40;80.80
40864;BME280;26582;47.524;19.012;2024-03-08T10:13:34;99275.72;;;8.17;81.35
40864;BME280;26582;47.524;19.012;2024-03-08T10:16:01;99302.84;;;8.43;80.82
40864;BME280;26582;47.524;19.012;2024-03-08T10:18:29;99292.94;;;8.45;80.37
40864;BME280;26582;47.524;19.012;2024-03-08T10:21:03;99299.13;;;8.46;80.36
40864;BME280;26582;47.524;19.012;2024-03-08T10:23:31;99303.19;;;8.50;80.61
40864;BME280;26582;47.524;19.012;2024-03-08T10:26:09;99291.13;;;8.57;80.70
40864;BME280;26582;47.524;19.012;2024-03-08T10:28:36;99302.22;;;8.62;80.51
40864;BME280;26582;47.524;19.012;2024-03-08T10:31:03;99294.00;;;8.65;80.50
40864;BME280;26582;47.524;19.012;2024-03-08T10:33:32;99299.78;;;8.70;79.97
40864;BME280;26582;47.524;19.012;2024-03-08T10:35:59;99296.75;;;8.75;79.61
40864;BME280;26582;47.524;19.012;2024-03-08T10:38:31;99287.81;;;8.76;79.70
40864;BME280;26582;47.524;19.012;2024-03-08T10:41:00;99286.59;;;8.80;79.59
40864;BME280;26582;47.524;19.012;2024-03-08T10:43:28;99294.28;;;8.94;79.76
40864;BME280;26582;47.524;19.012;2024-03-08T10:46:25;99287.13;;;8.95;79.35
40864;BME280;26582;47.524;19.012;2024-03-08T10:49:00;99279.88;;;8.97;79.59
40864;BME280;26582;47.524;19.012;2024-03-08T10:51:31;99278.53;;;9.02;78.50
40864;BME280;26582;47.524;19.012;2024-03-08T10:53:59;99281.41;;;9.10;77.92
40864;BME280;26582;47.524;19.012;2024-03-08T10:56:28;99275.84;;;9.13;78.47
40864;BME280;26582;47.524;19.012;2024-03-08T10:58:55;99278.59;;;9.12;77.55
40864;BME280;26582;47.524;19.012;2024-03-08T11:01:22;99277.25;;;9.18;77.45
40864;BME280;26582;47.524;19.012;2024-03-08T11:03:49;99272.75;;;9.18;77.24
40864;BME280;26582;47.524;19.012;2024-03-08T11:06:23;99274.59;;;9.18;76.91
40864;BME280;26582;47.524;19.012;2024-03-08T11:08:50;99281.63;;;9.07;77.94
40864;BME280;26582;47.524;19.012;2024-03-08T11:11:27;99277.16;;;9.08;77.96
40864;BME280;26582;47.524;19.012;2024-03-08T11:13:55;99279.34;;;9.03;77.58
40864;BME280;26582;47.524;19.012;2024-03-08T11:16:39;99283.00;;;9.02;77.79
40864;BME280;26582;47.524;19.012;2024-03-08T11:19:23;99280.16;;;8.94;77.25
40864;BME280;26582;47.524;19.012;2024-03-08T11:22:02;99270.09;;;8.97;77.40
40864;BME280;26582;47.524;19.012;2024-03-08T11:24:37;99272.78;;;8.86;77.20
40864;BME280;26582;47.524;19.012;2024-03-08T11:27:06;99268.66;;;8.72;78.26
40864;BME280;26582;47.524;19.012;2024-03-08T11:29:38;99265.59;;;8.77;79.22
40864;BME280;26582;47.524;19.012;2024-03-08T11:32:10;99271.31;;;8.72;79.29
40864;BME280;26582;47.524;19.012;2024-03-08T11:34:37;99273.19;;;8.81;79.12
40864;BME280;26582;47.524;19.012;2024-03-08T11:37:10;99257.88;;;8.74;79.81
40864;BME280;26582;47.524;19.012;2024-03-08T11:39:39;99268.84;;;8.80;78.97
40864;BME280;26582;47.524;19.012;2024-03-08T11:42:05;99265.81;;;8.85;78.98
40864;BME280;26582;47.524;19.012;2024-03-08T11:44:33;99251.13;;;8.70;80.17
40864;BME280;26582;47.524;19.012;2024-03-08T11:47:01;99275.34;;;8.87;80.21
40864;BME280;26582;47.524;19.012;2024-03-08T11:49:31;99260.72;;;8.93;78.92
40864;BME280;26582;47.524;19.012;2024-03-08T11:51:59;99260.34;;;8.86;77.90
40864;BME280;26582;47.524;19.012;2024-03-08T11:54:27;99257.84;;;8.85;77.67
40864;BME280;26582;47.524;19.012;2024-03-08T11:56:55;99250.63;;;8.76;76.75
40864;BME280;26582;47.524;19.012;2024-03-08T11:59:26;99251.56;;;8.86;77.45
40864;BME280;26582;47.524;19.012;2024-03-08T12:02:03;99252.75;;;8.93;78.13
40864;BME280;26582;47.524;19.012;2024-03-08T12:04:31;99251.84;;;8.72;77.16
40864;BME280;26582;47.524;19.012;2024-03-08T12:06:59;99248.09;;;8.74;78.46
40864;BME280;26582;47.524;19.012;2024-03-08T12:09:27;99245.13;;;8.68;76.63
40864;BME280;26582;47.524;19.012;2024-03-08T12:11:54;99245.91;;;8.47;77.30
40864;BME280;26582;47.524;19.012;2024-03-08T12:14:21;99249.97;;;8.62;78.97
40864;BME280;26582;47.524;19.012;2024-03-08T12:16:51;99243.13;;;8.81;79.18
40864;BME280;26582;47.524;19.012;2024-03-08T12:19:18;99226.19;;;8.93;79.20
40864;BME280;26582;47.524;19.012;2024-03-08T12:21:45;99224.44;;;9.03;79.11
40864;BME280;26582;47.524;19.012;2024-03-08T12:24:15;99224.75;;;9.10;77.79
40864;BME280;26582;47.524;19.012;2024-03-08T12:26:46;99226.31;;;9.12;77.69
40864;BME280;26582;47.524;19.012;2024-03-08T12:29:15;99224.84;;;9.20;77.39
40864;BME280;26582;47.524;19.012;2024-03-08T12:31:43;99224.16;;;9.27;76.96
40864;BME280;26582;47.524;19.012;2024-03-08T12:34:10;99225.97;;;9.27;76.93
40864;BME280;26582;47.524;19.012;2024-03-08T12:36:44;99225.97;;;9.27;76.43
40864;BME280;26582;47.524;19.012;2024-03-08T12:39:13;99230.84;;;9.22;77.13
40864;BME280;26582;47.524;19.012;2024-03-08T12:41:41;99228.88;;;9.24;76.71
40864;BME280;26582;47.524;19.012;2024-03-08T12:44:09;99231.28;;;9.27;75.28
40864;BME280;26582;47.524;19.012;2024-03-08T12:46:37;99230.31;;;9.28;75.55
40864;BME280;26582;47.524;19.012;2024-03-08T12:49:07;99231.06;;;9.30;75.24
40864;BME280;26582;47.524;19.012;2024-03-08T12:51:35;99220.53;;;9.28;74.56
40864;BME280;26582;47.524;19.012;2024-03-08T12:54:04;99222.50;;;9.26;74.53
40864;BME280;26582;47.524;19.012;2024-03-08T12:56:33;99211.78;;;9.17;74.73
40864;BME280;26582;47.524;19.012;2024-03-08T12:59:03;99216.19;;;9.27;75.26
40864;BME280;26582;47.524;19.012;2024-03-08T13:01:32;99216.50;;;9.34;75.21
40864;BME280;26582;47.524;19.012;2024-03-08T13:03:58;99218.22;;;9.35;75.03